sensor_id;sensor_type;location;lat;lon;timestamp;P1;durP1;ratioP1;P2;durP2;ratioP2
44078;SDS011;29744;49.078;12.878;2023-05-07T00:04:45;2.00;;;1.02;;
44078;SDS011;29744;49.078;12.878;2023-05-07T00:09:46;1.75;;;1.00;;
44078;SDS011;29744;49.078;12.878;2023-05-07T00:14:46;1.75;;;1.10;;
44078;SDS011;29744;49.078;12.878;2023-05-07T00:19:47;1.80;;;0.98;;
44078;SDS011;29744;49.078;12.878;2023-05-07T00:24:47;2.13;;;1.13;;
44078;SDS011;29744;49.078;12.878;2023-05-07T00:29:48;1.60;;;0.90;;
44078;SDS011;29744;49.078;12.878;2023-05-07T00:34:48;1.75;;;1.05;;
44078;SDS011;29744;49.078;12.878;2023-05-07T00:39:49;1.10;;;0.70;;
44078;SDS011;29744;49.078;12.878;2023-05-07T00:44:49;1.48;;;0.93;;
44078;SDS011;29744;49.078;12.878;2023-05-07T00:49:50;1.90;;;1.08;;
44078;SDS011;29744;49.078;12.878;2023-05-07T00:54:50;1.45;;;1.00;;
44078;SDS011;29744;49.078;12.878;2023-05-07T00:59:51;1.98;;;1.00;;
44078;SDS011;29744;49.078;12.878;2023-05-07T01:04:51;2.60;;;1.10;;
44078;SDS011;29744;49.078;12.878;2023-05-07T01:09:52;1.52;;;0.95;;
44078;SDS011;29744;49.078;12.878;2023-05-07T01:14:52;1.67;;;1.00;;
44078;SDS011;29744;49.078;12.878;2023-05-07T01:19:53;1.88;;;1.10;;
44078;SDS011;29744;49.078;12.878;2023-05-07T01:24:53;1.73;;;0.90;;
44078;SDS011;29744;49.078;12.878;2023-05-07T01:29:56;1.63;;;0.90;;
44078;SDS011;29744;49.078;12.878;2023-05-07T01:34:56;1.45;;;0.98;;
44078;SDS011;29744;49.078;12.878;2023-05-07T01:39:58;0.85;;;0.80;;
44078;SDS011;29744;49.078;12.878;2023-05-07T01:44:59;1.80;;;0.90;;
44078;SDS011;29744;49.078;12.878;2023-05-07T01:49:59;1.38;;;1.00;;
44078;SDS011;29744;49.078;12.878;2023-05-07T01:55:00;1.08;;;0.80;;
44078;SDS011;29744;49.078;12.878;2023-05-07T02:00:01;1.15;;;0.90;;
44078;SDS011;29744;49.078;12.878;2023-05-07T02:05:02;1.20;;;0.80;;
44078;SDS011;29744;49.078;12.878;2023-05-07T02:10:03;1.70;;;1.00;;
44078;SDS011;29744;49.078;12.878;2023-05-07T02:15:05;1.55;;;0.85;;
44078;SDS011;29744;49.078;12.878;2023-05-07T02:20:06;1.83;;;1.00;;
44078;SDS011;29744;49.078;12.878;2023-05-07T02:25:13;1.08;;;0.70;;
44078;SDS011;29744;49.078;12.878;2023-05-07T02:30:13;1.63;;;0.90;;
44078;SDS011;29744;49.078;12.878;2023-05-07T02:35:14;1.73;;;1.08;;
44078;SDS011;29744;49.078;12.878;2023-05-07T02:40:14;1.33;;;0.85;;
44078;SDS011;29744;49.078;12.878;2023-05-07T02:45:15;1.67;;;0.90;;
44078;SDS011;29744;49.078;12.878;2023-05-07T02:50:15;0.88;;;0.70;;
44078;SDS011;29744;49.078;12.878;2023-05-07T02:55:15;1.42;;;0.80;;
44078;SDS011;29744;49.078;12.878;2023-05-07T03:00:17;1.10;;;0.85;;
44078;SDS011;29744;49.078;12.878;2023-05-07T03:05:18;1.20;;;0.88;;
44078;SDS011;29744;49.078;12.878;2023-05-07T03:10:19;0.90;;;0.77;;
44078;SDS011;29744;49.078;12.878;2023-05-07T03:15:19;0.82;;;0.70;;
44078;SDS011;29744;49.078;12.878;2023-05-07T03:20:19;1.40;;;0.90;;
44078;SDS011;29744;49.078;12.878;2023-05-07T03:25:20;1.73;;;0.90;;
44078;SDS011;29744;49.078;12.878;2023-05-07T03:30:20;1.13;;;0.73;;
44078;SDS011;29744;49.078;12.878;2023-05-07T03:35:20;0.88;;;0.70;;
44078;SDS011;29744;49.078;12.878;2023-05-07T03:40:21;1.20;;;0.73;;
44078;SDS011;29744;49.078;12.878;2023-05-07T03:45:21;0.70;;;0.60;;
44078;SDS011;29744;49.078;12.878;2023-05-07T03:50:21;1.13;;;0.80;;
44078;SDS011;29744;49.078;12.878;2023-05-07T03:55:21;1.13;;;0.75;;
44078;SDS011;29744;49.078;12.878;2023-05-07T04:00:22;1.17;;;0.88;;
44078;SDS011;29744;49.078;12.878;2023-05-07T04:05:22;1.25;;;0.90;;
44078;SDS011;29744;49.078;12.878;2023-05-07T04:10:22;0.77;;;0.52;;
44078;SDS011;29744;49.078;12.878;2023-05-07T04:15:23;1.30;;;0.80;;
44078;SDS011;29744;49.078;12.878;2023-05-07T04:20:23;2.42;;;0.82;;
44078;SDS011;29744;49.078;12.878;2023-05-07T04:25:24;1.35;;;0.77;;
44078;SDS011;29744;49.078;12.878;2023-05-07T04:30:26;0.88;;;0.80;;
44078;SDS011;29744;49.078;12.878;2023-05-07T04:35:26;1.42;;;0.90;;
44078;SDS011;29744;49.078;12.878;2023-05-07T04:40:27;1.20;;;0.80;;
44078;SDS011;29744;49.078;12.878;2023-05-07T04:45:27;1.20;;;0.77;;
44078;SDS011;29744;49.078;12.878;2023-05-07T04:50:27;0.90;;;0.70;;
44078;SDS011;29744;49.078;12.878;2023-05-07T04:55:27;1.55;;;0.80;;
44078;SDS011;29744;49.078;12.878;2023-05-07T05:00:28;0.60;;;0.60;;
44078;SDS011;29744;49.078;12.878;2023-05-07T05:05:28;1.20;;;0.80;;
44078;SDS011;29744;49.078;12.878;2023-05-07T05:10:28;1.02;;;0.80;;
44078;SDS011;29744;49.078;12.878;2023-05-07T05:15:28;1.02;;;0.80;;
44078;SDS011;29744;49.078;12.878;2023-05-07T05:20:29;1.10;;;0.70;;
44078;SDS011;29744;49.078;12.878;2023-05-07T05:25:29;1.00;;;0.77;;
44078;SDS011;29744;49.078;12.878;2023-05-07T05:30:29;1.23;;;0.80;;
44078;SDS011;29744;49.078;12.878;2023-05-07T05:35:30;1.05;;;0.80;;
44078;SDS011;29744;49.078;12.878;2023-05-07T05:40:30;1.13;;;0.80;;
44078;SDS011;29744;49.078;12.878;2023-05-07T05:45:31;1.20;;;0.80;;
44078;SDS011;29744;49.078;12.878;2023-05-07T05:50:31;0.90;;;0.70;;
44078;SDS011;29744;49.078;12.878;2023-05-07T05:55:31;1.13;;;0.63;;
44078;SDS011;29744;49.078;12.878;2023-05-07T06:00:32;1.10;;;0.80;;
44078;SDS011;29744;49.078;12.878;2023-05-07T06:05:33;1.55;;;0.70;;
44078;SDS011;29744;49.078;12.878;2023-05-07T06:10:33;1.20;;;0.85;;
44078;SDS011;29744;49.078;12.878;2023-05-07T06:15:33;1.02;;;0.70;;
44078;SDS011;29744;49.078;12.878;2023-05-07T06:20:34;1.45;;;0.88;;
44078;SDS011;29744;49.078;12.878;2023-05-07T06:25:34;0.93;;;0.70;;
44078;SDS011;29744;49.078;12.878;2023-05-07T06:30:34;1.15;;;0.80;;
44078;SDS011;29744;49.078;12.878;2023-05-07T06:35:35;1.20;;;0.80;;
44078;SDS011;29744;49.078;12.878;2023-05-07T06:40:35;0.80;;;0.60;;
44078;SDS011;29744;49.078;12.878;2023-05-07T06:45:35;0.90;;;0.73;;
44078;SDS011;29744;49.078;12.878;2023-05-07T06:50:36;1.20;;;0.80;;
44078;SDS011;29744;49.078;12.878;2023-05-07T06:55:36;1.35;;;0.70;;
44078;SDS011;29744;49.078;12.878;2023-05-07T07:00:38;0.73;;;0.70;;
44078;SDS011;29744;49.078;12.878;2023-05-07T07:05:40;1.20;;;0.70;;
44078;SDS011;29744;49.078;12.878;2023-05-07T07:10:40;0.85;;;0.68;;
44078;SDS011;29744;49.078;12.878;2023-05-07T07:15:41;0.63;;;0.60;;
44078;SDS011;29744;49.078;12.878;2023-05-07T07:20:41;1.38;;;0.90;;
44078;SDS011;29744;49.078;12.878;2023-05-07T07:25:41;0.90;;;0.73;;
44078;SDS011;29744;49.078;12.878;2023-05-07T07:30:41;0.95;;;0.70;;
44078;SDS011;29744;49.078;12.878;2023-05-07T07:35:42;1.38;;;0.90;;
44078;SDS011;29744;49.078;12.878;2023-05-07T07:40:42;1.35;;;0.80;;
44078;SDS011;29744;49.078;12.878;2023-05-07T07:45:43;0.80;;;0.70;;
44078;SDS011;29744;49.078;12.878;2023-05-07T07:50:44;0.95;;;0.60;;
44078;SDS011;29744;49.078;12.878;2023-05-07T07:55:44;1.05;;;0.85;;
44078;SDS011;29744;49.078;12.878;2023-05-07T08:00:45;1.15;;;0.75;;
44078;SDS011;29744;49.078;12.878;2023-05-07T08:05:45;1.23;;;0.93;;
44078;SDS011;29744;49.078;12.878;2023-05-07T08:10:45;0.98;;;0.75;;
44078;SDS011;29744;49.078;12.878;2023-05-07T08:15:45;1.17;;;0.80;;
44078;SDS011;29744;49.078;12.878;2023-05-07T08:20:46;1.10;;;0.75;;
44078;SDS011;29744;49.078;12.878;2023-05-07T08:25:47;1.35;;;1.00;;
44078;SDS011;29744;49.078;12.878;2023-05-07T08:30:47;1.45;;;1.00;;
44078;SDS011;29744;49.078;12.878;2023-05-07T08:35:48;1.40;;;1.00;;
44078;SDS011;29744;49.078;12.878;2023-05-07T08:40:48;1.73;;;0.90;;
44078;SDS011;29744;49.078;12.878;2023-05-07T08:45:48;1.22;;;0.90;;
44078;SDS011;29744;49.078;12.878;2023-05-07T08:50:53;1.65;;;1.10;;
44078;SDS011;29744;49.078;12.878;2023-05-07T08:55:53;2.58;;;1.20;;
44078;SDS011;29744;49.078;12.878;2023-05-07T09:00:54;1.98;;;1.30;;
44078;SDS011;29744;49.078;12.878;2023-05-07T09:05:54;2.72;;;1.42;;
44078;SDS011;29744;49.078;12.878;2023-05-07T09:10:54;2.17;;;1.45;;
44078;SDS011;29744;49.078;12.878;2023-05-07T09:15:55;2.25;;;1.30;;
44078;SDS011;29744;49.078;12.878;2023-05-07T09:20:56;2.65;;;1.50;;
44078;SDS011;29744;49.078;12.878;2023-05-07T09:25:59;2.17;;;1.48;;
44078;SDS011;29744;49.078;12.878;2023-05-07T09:31:00;1.90;;;1.30;;
44078;SDS011;29744;49.078;12.878;2023-05-07T09:36:04;3.00;;;1.27;;
44078;SDS011;29744;49.078;12.878;2023-05-07T09:41:10;3.22;;;1.42;;
44078;SDS011;29744;49.078;12.878;2023-05-07T09:46:12;2.25;;;1.38;;
44078;SDS011;29744;49.078;12.878;2023-05-07T09:51:24;2.78;;;1.63;;
44078;SDS011;29744;49.078;12.878;2023-05-07T09:56:29;3.05;;;1.60;;
44078;SDS011;29744;49.078;12.878;2023-05-07T10:01:31;3.15;;;1.30;;
44078;SDS011;29744;49.078;12.878;2023-05-07T10:06:31;2.42;;;1.50;;
44078;SDS011;29744;49.078;12.878;2023-05-07T10:11:35;2.38;;;1.50;;
44078;SDS011;29744;49.078;12.878;2023-05-07T10:16:36;2.30;;;1.48;;
44078;SDS011;29744;49.078;12.878;2023-05-07T10:21:37;2.40;;;1.40;;
44078;SDS011;29744;49.078;12.878;2023-05-07T10:26:39;3.80;;;1.67;;
44078;SDS011;29744;49.078;12.878;2023-05-07T10:37:09;2.50;;;1.55;;
44078;SDS011;29744;49.078;12.878;2023-05-07T10:42:11;2.80;;;1.50;;
44078;SDS011;29744;49.078;12.878;2023-05-07T10:47:13;2.55;;;1.55;;
44078;SDS011;29744;49.078;12.878;2023-05-07T10:52:18;2.72;;;1.75;;
44078;SDS011;29744;49.078;12.878;2023-05-07T10:57:33;2.40;;;1.40;;
44078;SDS011;29744;49.078;12.878;2023-05-07T11:08:06;2.22;;;1.40;;
44078;SDS011;29744;49.078;12.878;2023-05-07T11:13:07;2.40;;;1.60;;
44078;SDS011;29744;49.078;12.878;2023-05-07T11:18:08;3.05;;;1.77;;
44078;SDS011;29744;49.078;12.878;2023-05-07T11:28:41;2.60;;;1.50;;
44078;SDS011;29744;49.078;12.878;2023-05-07T11:33:43;2.60;;;1.70;;
44078;SDS011;29744;49.078;12.878;2023-05-07T11:38:44;2.33;;;1.33;;
44078;SDS011;29744;49.078;12.878;2023-05-07T11:43:54;2.10;;;1.40;;
44078;SDS011;29744;49.078;12.878;2023-05-07T11:48:58;2.75;;;1.40;;
44078;SDS011;29744;49.078;12.878;2023-05-07T11:54:00;2.55;;;1.65;;
44078;SDS011;29744;49.078;12.878;2023-05-07T11:59:04;1.70;;;1.20;;
44078;SDS011;29744;49.078;12.878;2023-05-07T12:04:04;2.60;;;1.60;;
44078;SDS011;29744;49.078;12.878;2023-05-07T12:09:05;2.25;;;1.42;;
44078;SDS011;29744;49.078;12.878;2023-05-07T12:14:11;2.65;;;1.70;;
44078;SDS011;29744;49.078;12.878;2023-05-07T12:19:11;2.13;;;1.40;;
44078;SDS011;29744;49.078;12.878;2023-05-07T12:24:13;2.47;;;1.52;;
44078;SDS011;29744;49.078;12.878;2023-05-07T12:29:14;2.25;;;1.35;;
44078;SDS011;29744;49.078;12.878;2023-05-07T12:34:15;2.53;;;1.70;;
44078;SDS011;29744;49.078;12.878;2023-05-07T12:39:15;3.13;;;1.83;;
44078;SDS011;29744;49.078;12.878;2023-05-07T12:44:16;3.50;;;1.60;;
44078;SDS011;29744;49.078;12.878;2023-05-07T12:49:16;3.33;;;1.60;;
44078;SDS011;29744;49.078;12.878;2023-05-07T12:54:33;2.90;;;1.58;;
44078;SDS011;29744;49.078;12.878;2023-05-07T12:59:36;2.33;;;1.52;;
44078;SDS011;29744;49.078;12.878;2023-05-07T13:04:38;2.55;;;1.65;;
44078;SDS011;29744;49.078;12.878;2023-05-07T13:09:38;2.25;;;1.67;;
44078;SDS011;29744;49.078;12.878;2023-05-07T13:14:38;2.72;;;1.70;;
44078;SDS011;29744;49.078;12.878;2023-05-07T13:19:39;2.35;;;1.50;;
44078;SDS011;29744;49.078;12.878;2023-05-07T13:24:39;3.13;;;1.90;;
44078;SDS011;29744;49.078;12.878;2023-05-07T13:29:41;2.35;;;1.63;;
44078;SDS011;29744;49.078;12.878;2023-05-07T13:34:41;1.90;;;1.27;;
44078;SDS011;29744;49.078;12.878;2023-05-07T13:39:42;2.25;;;1.63;;
44078;SDS011;29744;49.078;12.878;2023-05-07T13:44:42;2.95;;;1.90;;
44078;SDS011;29744;49.078;12.878;2023-05-07T13:49:43;2.55;;;1.70;;
44078;SDS011;29744;49.078;12.878;2023-05-07T13:54:44;2.63;;;1.60;;
44078;SDS011;29744;49.078;12.878;2023-05-07T13:59:44;2.83;;;1.80;;
44078;SDS011;29744;49.078;12.878;2023-05-07T14:04:44;2.58;;;1.75;;
44078;SDS011;29744;49.078;12.878;2023-05-07T14:09:45;2.75;;;1.77;;
44078;SDS011;29744;49.078;12.878;2023-05-07T14:14:45;2.25;;;1.58;;
44078;SDS011;29744;49.078;12.878;2023-05-07T14:19:46;2.28;;;1.58;;
44078;SDS011;29744;49.078;12.878;2023-05-07T14:24:47;2.45;;;1.70;;
44078;SDS011;29744;49.078;12.878;2023-05-07T14:29:47;2.53;;;1.50;;
44078;SDS011;29744;49.078;12.878;2023-05-07T14:34:50;3.08;;;1.75;;
44078;SDS011;29744;49.078;12.878;2023-05-07T14:39:51;2.47;;;1.70;;
44078;SDS011;29744;49.078;12.878;2023-05-07T14:44:51;2.53;;;1.73;;
44078;SDS011;29744;49.078;12.878;2023-05-07T14:49:52;2.38;;;1.70;;
44078;SDS011;29744;49.078;12.878;2023-05-07T14:54:53;2.65;;;1.70;;
44078;SDS011;29744;49.078;12.878;2023-05-07T14:59:53;2.67;;;1.63;;
44078;SDS011;29744;49.078;12.878;2023-05-07T15:04:53;2.64;;;1.70;;
44078;SDS011;29744;49.078;12.878;2023-05-07T15:09:54;2.90;;;1.80;;
44078;SDS011;29744;49.078;12.878;2023-05-07T15:14:54;2.83;;;1.75;;
44078;SDS011;29744;49.078;12.878;2023-05-07T15:19:54;2.60;;;1.65;;
44078;SDS011;29744;49.078;12.878;2023-05-07T15:24:55;3.00;;;1.90;;
44078;SDS011;29744;49.078;12.878;2023-05-07T15:29:57;2.58;;;1.60;;
44078;SDS011;29744;49.078;12.878;2023-05-07T15:34:57;2.70;;;1.67;;
44078;SDS011;29744;49.078;12.878;2023-05-07T15:39:57;3.08;;;1.90;;
44078;SDS011;29744;49.078;12.878;2023-05-07T15:44:58;2.83;;;1.83;;
44078;SDS011;29744;49.078;12.878;2023-05-07T15:50:00;2.70;;;1.80;;
44078;SDS011;29744;49.078;12.878;2023-05-07T15:55:01;2.95;;;1.80;;
44078;SDS011;29744;49.078;12.878;2023-05-07T16:00:02;2.47;;;1.70;;
44078;SDS011;29744;49.078;12.878;2023-05-07T16:05:05;2.90;;;1.80;;
44078;SDS011;29744;49.078;12.878;2023-05-07T16:10:08;2.85;;;1.73;;
44078;SDS011;29744;49.078;12.878;2023-05-07T16:15:09;2.60;;;1.70;;
44078;SDS011;29744;49.078;12.878;2023-05-07T16:20:09;2.85;;;1.95;;
44078;SDS011;29744;49.078;12.878;2023-05-07T16:25:11;2.50;;;1.63;;
44078;SDS011;29744;49.078;12.878;2023-05-07T16:30:13;2.67;;;1.70;;
44078;SDS011;29744;49.078;12.878;2023-05-07T16:35:13;2.30;;;1.50;;
44078;SDS011;29744;49.078;12.878;2023-05-07T16:40:14;3.13;;;1.85;;
44078;SDS011;29744;49.078;12.878;2023-05-07T16:45:14;2.45;;;1.63;;
44078;SDS011;29744;49.078;12.878;2023-05-07T16:50:15;3.28;;;1.90;;
44078;SDS011;29744;49.078;12.878;2023-05-07T16:55:15;2.17;;;1.55;;
44078;SDS011;29744;49.078;12.878;2023-05-07T17:00:16;2.83;;;1.95;;
44078;SDS011;29744;49.078;12.878;2023-05-07T17:05:17;3.17;;;1.60;;
44078;SDS011;29744;49.078;12.878;2023-05-07T17:10:18;3.05;;;1.88;;
44078;SDS011;29744;49.078;12.878;2023-05-07T17:15:19;2.65;;;1.70;;
44078;SDS011;29744;49.078;12.878;2023-05-07T17:20:19;2.35;;;1.50;;
44078;SDS011;29744;49.078;12.878;2023-05-07T17:25:20;3.63;;;1.90;;
44078;SDS011;29744;49.078;12.878;2023-05-07T17:30:22;2.85;;;1.60;;
44078;SDS011;29744;49.078;12.878;2023-05-07T17:35:22;2.83;;;1.73;;
44078;SDS011;29744;49.078;12.878;2023-05-07T17:40:22;2.97;;;1.70;;
44078;SDS011;29744;49.078;12.878;2023-05-07T17:45:23;2.95;;;1.85;;
44078;SDS011;29744;49.078;12.878;2023-05-07T17:50:23;2.88;;;1.75;;
44078;SDS011;29744;49.078;12.878;2023-05-07T17:55:23;3.00;;;1.77;;
44078;SDS011;29744;49.078;12.878;2023-05-07T18:00:24;3.63;;;2.00;;
44078;SDS011;29744;49.078;12.878;2023-05-07T18:05:27;2.85;;;1.77;;
44078;SDS011;29744;49.078;12.878;2023-05-07T18:10:28;2.58;;;1.70;;
44078;SDS011;29744;49.078;12.878;2023-05-07T18:15:28;2.78;;;1.80;;
44078;SDS011;29744;49.078;12.878;2023-05-07T18:20:29;2.70;;;1.77;;
44078;SDS011;29744;49.078;12.878;2023-05-07T18:25:29;2.92;;;1.88;;
44078;SDS011;29744;49.078;12.878;2023-05-07T18:30:30;3.40;;;1.70;;
44078;SDS011;29744;49.078;12.878;2023-05-07T18:35:30;2.42;;;1.60;;
44078;SDS011;29744;49.078;12.878;2023-05-07T18:40:30;2.78;;;1.73;;
44078;SDS011;29744;49.078;12.878;2023-05-07T18:45:32;2.60;;;1.77;;
44078;SDS011;29744;49.078;12.878;2023-05-07T18:50:33;2.47;;;1.50;;
44078;SDS011;29744;49.078;12.878;2023-05-07T18:55:33;2.40;;;1.63;;
44078;SDS011;29744;49.078;12.878;2023-05-07T19:00:33;2.80;;;1.70;;
44078;SDS011;29744;49.078;12.878;2023-05-07T19:05:34;3.00;;;1.65;;
44078;SDS011;29744;49.078;12.878;2023-05-07T19:10:34;2.90;;;1.67;;
44078;SDS011;29744;49.078;12.878;2023-05-07T19:15:34;2.80;;;1.70;;
44078;SDS011;29744;49.078;12.878;2023-05-07T19:20:34;2.92;;;1.80;;
44078;SDS011;29744;49.078;12.878;2023-05-07T19:25:35;2.63;;;1.70;;
44078;SDS011;29744;49.078;12.878;2023-05-07T19:30:38;2.80;;;1.65;;
44078;SDS011;29744;49.078;12.878;2023-05-07T19:35:39;2.70;;;1.80;;
44078;SDS011;29744;49.078;12.878;2023-05-07T19:40:40;3.40;;;1.90;;
44078;SDS011;29744;49.078;12.878;2023-05-07T19:45:40;2.67;;;1.52;;
44078;SDS011;29744;49.078;12.878;2023-05-07T19:50:42;3.50;;;1.90;;
44078;SDS011;29744;49.078;12.878;2023-05-07T19:55:42;3.15;;;1.70;;
44078;SDS011;29744;49.078;12.878;2023-05-07T20:00:42;2.63;;;1.63;;
44078;SDS011;29744;49.078;12.878;2023-05-07T20:05:44;3.63;;;1.98;;
44078;SDS011;29744;49.078;12.878;2023-05-07T20:10:45;3.50;;;1.70;;
44078;SDS011;29744;49.078;12.878;2023-05-07T20:15:45;3.53;;;1.90;;
44078;SDS011;29744;49.078;12.878;2023-05-07T20:20:45;2.83;;;1.80;;
44078;SDS011;29744;49.078;12.878;2023-05-07T20:25:46;3.13;;;1.88;;
44078;SDS011;29744;49.078;12.878;2023-05-07T20:30:47;3.00;;;1.92;;
44078;SDS011;29744;49.078;12.878;2023-05-07T20:35:47;2.72;;;1.55;;
44078;SDS011;29744;49.078;12.878;2023-05-07T20:40:47;3.45;;;1.65;;
44078;SDS011;29744;49.078;12.878;2023-05-07T20:45:48;3.28;;;1.92;;
44078;SDS011;29744;49.078;12.878;2023-05-07T20:50:58;3.28;;;1.70;;
44078;SDS011;29744;49.078;12.878;2023-05-07T20:56:00;3.33;;;1.83;;
44078;SDS011;29744;49.078;12.878;2023-05-07T21:01:00;3.90;;;2.00;;
44078;SDS011;29744;49.078;12.878;2023-05-07T21:06:00;2.78;;;1.52;;
44078;SDS011;29744;49.078;12.878;2023-05-07T21:11:00;2.47;;;1.50;;
44078;SDS011;29744;49.078;12.878;2023-05-07T21:16:01;3.03;;;1.83;;
44078;SDS011;29744;49.078;12.878;2023-05-07T21:21:05;2.53;;;1.55;;
44078;SDS011;29744;49.078;12.878;2023-05-07T21:26:07;2.95;;;1.75;;
44078;SDS011;29744;49.078;12.878;2023-05-07T21:31:07;3.55;;;1.90;;
44078;SDS011;29744;49.078;12.878;2023-05-07T21:36:08;3.50;;;1.88;;
44078;SDS011;29744;49.078;12.878;2023-05-07T21:41:09;3.35;;;2.08;;
44078;SDS011;29744;49.078;12.878;2023-05-07T21:46:10;2.67;;;1.67;;
44078;SDS011;29744;49.078;12.878;2023-05-07T21:51:10;3.17;;;1.80;;
44078;SDS011;29744;49.078;12.878;2023-05-07T21:56:12;2.42;;;1.67;;
44078;SDS011;29744;49.078;12.878;2023-05-07T22:01:12;3.17;;;1.67;;
44078;SDS011;29744;49.078;12.878;2023-05-07T22:06:12;3.60;;;1.95;;
44078;SDS011;29744;49.078;12.878;2023-05-07T22:11:13;4.15;;;2.00;;
44078;SDS011;29744;49.078;12.878;2023-05-07T22:16:13;2.92;;;1.80;;
44078;SDS011;29744;49.078;12.878;2023-05-07T22:21:13;2.75;;;1.80;;
44078;SDS011;29744;49.078;12.878;2023-05-07T22:26:14;2.88;;;1.77;;
44078;SDS011;29744;49.078;12.878;2023-05-07T22:31:14;5.00;;;2.08;;
44078;SDS011;29744;49.078;12.878;2023-05-07T22:36:15;2.88;;;1.80;;
44078;SDS011;29744;49.078;12.878;2023-05-07T22:41:15;3.45;;;1.83;;
44078;SDS011;29744;49.078;12.878;2023-05-07T22:46:15;2.85;;;1.70;;
44078;SDS011;29744;49.078;12.878;2023-05-07T22:51:15;3.20;;;1.75;;
44078;SDS011;29744;49.078;12.878;2023-05-07T22:56:16;2.92;;;1.75;;
44078;SDS011;29744;49.078;12.878;2023-05-07T23:01:16;3.20;;;1.88;;
44078;SDS011;29744;49.078;12.878;2023-05-07T23:06:17;3.85;;;1.80;;
44078;SDS011;29744;49.078;12.878;2023-05-07T23:11:17;3.65;;;2.00;;
44078;SDS011;29744;49.078;12.878;2023-05-07T23:16:18;2.72;;;1.75;;
44078;SDS011;29744;49.078;12.878;2023-05-07T23:21:18;3.45;;;1.88;;
44078;SDS011;29744;49.078;12.878;2023-05-07T23:26:18;3.15;;;2.00;;
44078;SDS011;29744;49.078;12.878;2023-05-07T23:31:19;3.48;;;1.88;;
44078;SDS011;29744;49.078;12.878;2023-05-07T23:36:19;2.70;;;1.70;;
44078;SDS011;29744;49.078;12.878;2023-05-07T23:41:20;3.28;;;1.88;;
44078;SDS011;29744;49.078;12.878;2023-05-07T23:46:20;2.80;;;1.90;;
44078;SDS011;29744;49.078;12.878;2023-05-07T23:51:23;3.95;;;1.90;;
44078;SDS011;29744;49.078;12.878;2023-05-07T23:56:23;2.38;;;1.65;;
